This is the latest recevied weather packets stored in our database for station/object TG9ADI-20. If no packets are shown the sender has not sent any weather packets the latest 10 day(s).
| Time | Temp. | Humidity | Pressure | Rain* | Wind** | Luminosity | Snow |
|---|---|---|---|---|---|---|---|
| 1778107007 | 25.56° C | 79% | 1011 hPa | 0 mm | - | - | - |
| 1778106407 | 25° C | 78% | 1011 hPa | 0 mm | - | - | - |
| 1778105806 | 25° C | 78% | 1011 hPa | 0 mm | - | - | - |
| 1778105206 | 25.56° C | 77% | 1011 hPa | 0 mm | - | - | - |
| 1778104605 | 26.11° C | 76% | 1011 hPa | 0 mm | - | - | - |
| 1778104004 | 26.67° C | 77% | 1011 hPa | 0 mm | - | - | - |
| 1778103404 | 24.44° C | 89% | 1011 hPa | 0 mm | - | - | - |
| 1778102803 | 26.67° C | 76% | 1011 hPa | 0 mm | - | - | - |
| 1778102202 | 26.67° C | 76% | 1011 hPa | 0 mm | - | - | - |
| 1778101231 | 25.56° C | 10% | - | 0 mm | - | - | - |
| 1778100631 | 24.44° C | 10% | - | 0 mm | - | - | - |
| 1778100030 | 24.44° C | 10% | - | 0 mm | - | - | - |
| 1778099430 | 26.11° C | 10% | - | 0 mm | - | - | - |
| 1778098820 | 26.11° C | 10% | - | 0 mm | - | - | - |
| 1778098219 | 26.11° C | 84% | 1011 hPa | 0 mm | - | - | - |
| 1778097618 | 26.11° C | 84% | 1011 hPa | 0 mm | - | - | - |
| 1778097018 | 26.11° C | 83% | 1012 hPa | 0 mm | - | - | - |
| 1778096417 | 26.11° C | 83% | 1012 hPa | 0 mm | - | - | - |
| 1778095817 | 27.22° C | 71% | 1012 hPa | 0 mm | - | - | - |
| 1778095216 | 27.78° C | 72% | 1012 hPa | 0 mm | - | - | - |
| 1778094616 | 27.78° C | 74% | 1012 hPa | 0 mm | - | - | - |
| 1778094015 | 26.11° C | 10% | - | 0 mm | - | - | - |
| 1778093414 | 26.11° C | 77% | 1012 hPa | 0 mm | - | - | - |
| 1778092814 | 27.78° C | 64% | 1012 hPa | 0 mm | - | - | - |
| 1778092213 | 27.78° C | 64% | 1012 hPa | 0 mm | - | - | - |
* Rain latest hour (hover to see other rain measurements)
** Current wind speed in m/s (hover to see current wind gust speed)